Time;durP1;ratioP1;P1;durP2;ratioP2;P2;SDS_P1;SDS_P2;PMS_P1;PMS_P2;Temp;Humidity;BMP_temperature;BMP_pressure;BME280_temperature;BME280_humidity;BME280_pressure;Samples;Min_cycle;Max_cycle;Signal;HPM_P1;HPM_P2
2024/01/12 08:01:16;;;;;;;52.63;27.70;;;;;;;-0.35;59.08;99721.66;4949047;29;20065;-96
2024/01/12 08:03:47;;;;;;;58.10;30.70;;;;;;;-0.29;59.88;99723.56;4950514;29;20057;-96
2024/01/12 08:06:14;;;;;;;55.25;30.88;;;;;;;0.00;58.11;99751.75;4914187;29;20038;-95
2024/01/12 08:08:48;;;;;;;56.35;30.25;;;;;;;-0.30;58.17;99728.03;4914129;29;20031;-95
2024/01/12 08:20:08;;;;;;;69.57;33.88;;;;;;;0.34;57.12;99763.44;5010902;23;20393;-95
2024/01/12 08:23:17;;;;;;;64.85;30.67;;;;;;;0.18;57.45;99753.91;4927420;29;20055;-96
2024/01/12 08:26:05;;;;;;;;;;;;;;;;;;;;;
2024/01/12 08:28:43;;;;;;;64.07;31.17;;;;;;;0.36;57.33;99770.16;4935643;29;20043;-96
2024/01/12 08:32:00;;;;;;;83.05;33.67;;;;;;;0.24;57.90;99763.75;4913133;29;20036;-96
2024/01/12 08:35:02;;;;;;;84.97;34.75;;;;;;;0.39;57.60;99764.50;4928630;29;20028;-96
2024/01/12 08:38:15;;;;;;;83.68;35.22;;;;;;;0.48;56.13;99781.06;4917284;29;20039;-96
2024/01/12 08:40:49;;;;;;;99.35;36.17;;;;;;;0.32;55.74;99739.78;4891202;29;20045;-96
2024/01/12 08:46:58;;;;;;;;;;;;;;;;;;;;;
2024/01/12 09:03:59;;;;;;;46.30;24.53;;;;;;;1.04;55.71;99780.19;4757485;30;20579;-95
2024/01/12 09:06:35;;;;;;;48.05;22.52;;;;;;;0.93;55.29;99754.22;4759932;30;20792;-95
2024/01/12 09:09:34;;;;;;;;;;;;;;;;;;;;;
2024/01/12 09:15:29;;;;;;;50.50;24.48;;;;;;;1.46;54.60;99741.19;4710290;30;20041;-94
2024/01/12 09:18:04;;;;;;;55.83;26.48;;;;;;;1.60;54.01;99740.19;4700099;30;20041;-94
2024/01/12 09:20:52;;;;;;;;;;;;;;;;;;;;;
2024/01/12 09:26:23;;;;;;;45.67;24.42;;;;;;;1.78;52.53;99731.63;5472791;23;20063;-95
2024/01/12 09:29:05;;;;;;;;;;;;;;;;;;;;;
2024/01/12 09:31:57;;;;;;;;;;;;;;;;;;;;;
2024/01/12 09:34:29;;;;;;;46.78;24.48;;;;;;;1.71;54.22;99736.13;4898607;29;20128;-95
2024/01/12 09:42:18;;;;;;;41.90;22.25;;;;;;;2.28;50.23;99735.75;4924425;29;20072;-96
2024/01/12 09:45:44;;;;;;;22.13;12.57;;;;;;;2.42;48.87;99762.09;4912235;29;20066;-96
2024/01/12 09:51:05;;;;;;;;;;;;;;;;;;;;;
2024/01/12 10:02:40;;;;;;;;;;;;;;;;;;;;;
2024/01/12 10:23:11;;;;;;;23.83;12.52;;;;;;;3.51;44.39;99758.94;4963404;28;20424;-95
2024/01/12 10:25:43;;;;;;;21.75;12.82;;;;;;;3.22;44.09;99742.50;4895491;29;20044;-96
2024/01/12 10:28:17;;;;;;;17.70;8.90;;;;;;;3.24;44.39;99759.88;4910583;29;20127;-94
2024/01/12 10:30:45;;;;;;;16.05;9.27;;;;;;;3.23;44.30;99736.16;4875621;29;20474;-94
2024/01/12 10:33:13;;;;;;;22.00;10.40;;;;;;;3.10;43.46;99729.03;4878403;29;20092;-94
2024/01/12 10:35:39;;;;;;;16.65;9.00;;;;;;;3.18;44.17;99734.13;4891927;29;20494;-94
2024/01/12 10:38:16;;;;;;;16.20;8.60;;;;;;;3.29;43.63;99747.78;4874119;29;20094;-95
2024/01/12 10:40:42;;;;;;;16.63;8.50;;;;;;;3.34;43.15;99738.16;4876971;29;20172;-93
2024/01/12 10:43:10;;;;;;;18.15;9.23;;;;;;;3.30;43.51;99726.31;4875115;29;20055;-94
2024/01/12 10:45:47;;;;;;;17.77;9.25;;;;;;;3.33;43.44;99728.53;4892889;29;20040;-95
2024/01/12 10:48:15;;;;;;;17.92;10.05;;;;;;;3.26;43.94;99718.94;4877941;29;20091;-96
2024/01/12 10:50:48;;;;;;;17.23;9.77;;;;;;;3.62;43.91;99747.63;4921539;29;20051;-93
2024/01/12 10:53:36;;;;;;;18.00;9.02;;;;;;;3.45;43.39;99747.31;4926925;29;20138;-95
2024/01/12 10:56:22;;;;;;;24.15;12.57;;;;;;;3.29;45.30;99723.84;4911979;29;20139;-94
2024/01/12 10:58:51;;;;;;;24.92;12.25;;;;;;;3.11;46.20;99740.50;4923471;29;20066;-95
2024/01/12 11:01:20;;;;;;;24.65;12.18;;;;;;;3.22;45.95;99738.00;4915422;29;20401;-93
2024/01/12 11:03:45;;;;;;;24.98;12.48;;;;;;;3.21;46.86;99741.66;4913434;29;20063;-93
2024/01/12 11:06:12;;;;;;;23.17;12.65;;;;;;;3.07;46.63;99721.47;4914058;29;20054;-94
2024/01/12 11:08:40;;;;;;;31.58;14.45;;;;;;;3.17;46.73;99721.84;4912311;29;20032;-93
2024/01/12 11:11:15;;;;;;;27.67;13.68;;;;;;;3.15;46.64;99721.22;4911386;29;20027;-96
2024/01/12 11:13:41;;;;;;;21.05;11.70;;;;;;;3.44;46.74;99746.50;4913277;29;20116;-94
2024/01/12 11:16:08;;;;;;;25.40;13.35;;;;;;;3.60;45.38;99734.53;4913779;29;20132;-94
2024/01/12 11:18:35;;;;;;;24.92;12.10;;;;;;;3.75;45.86;99722.75;4930668;29;20046;-94
2024/01/12 11:21:11;;;;;;;22.35;11.75;;;;;;;3.68;45.95;99708.69;4927527;29;20070;-95
2024/01/12 11:23:44;;;;;;;25.58;12.20;;;;;;;3.77;45.14;99726.03;4916554;29;20110;-95
2024/01/12 11:26:09;;;;;;;20.65;10.75;;;;;;;3.77;44.82;99729.50;4915538;29;20115;-96
2024/01/12 11:28:41;;;;;;;31.00;13.98;;;;;;;3.54;46.23;99705.28;4914292;29;20039;-96
2024/01/12 11:31:09;;;;;;;26.33;13.80;;;;;;;3.83;45.70;99733.16;4930453;29;20035;-95
2024/01/12 11:33:47;;;;;;;20.05;11.45;;;;;;;3.72;44.78;99721.34;4914962;29;20196;-94
2024/01/12 11:36:29;;;;;;;24.60;11.80;;;;;;;3.65;45.20;99723.22;4918548;29;20034;-96
2024/01/12 11:39:02;;;;;;;18.60;9.55;;;;;;;3.83;44.70;99746.47;4917983;29;20046;-95
2024/01/12 11:41:30;;;;;;;19.33;10.48;;;;;;;3.71;45.62;99730.34;4916452;29;20035;-96
2024/01/12 11:44:01;;;;;;;21.98;10.80;;;;;;;3.58;45.57;99743.75;4917025;29;20173;-96
2024/01/12 12:23:37;;;;;;;23.45;11.05;;;;;;;2.76;47.29;99756.75;4984826;28;20504;-96
2024/01/12 12:26:05;;;;;;;22.30;10.93;;;;;;;2.76;46.99;99754.94;4948239;28;20165;-96
2024/01/12 12:35:22;;;;;;;29.07;13.67;;;;;;;2.61;47.89;99744.53;4892068;29;20040;-96
2024/01/12 12:38:45;;;;;;;30.65;13.20;;;;;;;2.32;49.11;99760.88;4877173;29;20119;-96
2024/01/12 12:41:26;;;;;;;21.38;11.30;;;;;;;2.40;48.58;99756.19;4933932;29;20051;-96
2024/01/12 12:44:02;;;;;;;;;;;;;;;;;;;;;
2024/01/12 12:46:43;;;;;;;21.10;11.10;;;;;;;2.59;48.17;99789.09;4925216;29;20122;-95
2024/01/12 12:49:16;;;;;;;24.13;11.98;;;;;;;2.43;48.42;99776.22;4954313;29;20042;-96
2024/01/12 12:52:01;;;;;;;24.48;12.35;;;;;;;2.41;49.25;99804.84;4935595;29;20322;-96
2024/01/12 12:54:33;;;;;;;21.80;12.18;;;;;;;2.40;49.12;99776.63;4934034;29;20095;-96
2024/01/12 12:57:00;;;;;;;30.42;12.43;;;;;;;2.60;48.85;99800.56;4898544;29;20095;-96
2024/01/12 12:59:35;;;;;;;24.58;12.48;;;;;;;2.49;48.72;99777.22;4911357;29;20036;-96
2024/01/12 13:02:10;;;;;;;28.65;13.75;;;;;;;2.47;49.44;99787.25;4952688;29;20034;-96
2024/01/12 13:05:04;;;;;;;26.52;14.38;;;;;;;2.22;50.09;99801.13;4920171;29;20035;-96
2024/01/12 13:07:40;;;;;;;24.40;13.52;;;;;;;1.90;51.89;99795.59;4901206;29;20042;-95
2024/01/12 13:13:39;;;;;;;26.30;13.80;;;;;;;2.36;52.11;99818.72;5722679;23;20047;-95
2024/01/12 13:16:39;;;;;;;24.67;12.57;;;;;;;2.25;52.35;99802.59;4914334;29;20040;-96
2024/01/12 13:19:26;;;;;;;27.20;13.05;;;;;;;2.14;52.04;99799.53;4916627;29;20040;-94
2024/01/12 13:21:55;;;;;;;32.38;14.35;;;;;;;2.38;52.01;99821.19;4915058;29;20059;-95
2024/01/12 13:24:24;;;;;;;29.70;14.07;;;;;;;2.16;51.46;99797.47;4895741;29;20039;-95
2024/01/12 13:26:51;;;;;;;30.02;13.90;;;;;;;2.11;51.45;99815.03;4893815;29;20027;-93
2024/01/12 13:29:16;;;;;;;28.77;14.73;;;;;;;1.93;51.97;99811.13;4924949;29;20035;-94
2024/01/12 13:31:55;;;;;;;40.80;18.75;;;;;;;1.92;52.08;99812.13;4897872;29;20103;-95
2024/01/12 13:34:21;;;;;;;30.98;14.27;;;;;;;1.75;52.73;99832.94;4911542;29;20051;-94
2024/01/12 13:36:55;;;;;;;26.15;13.07;;;;;;;1.58;52.53;99813.88;4895421;29;20038;-93
2024/01/12 13:39:21;;;;;;;30.38;14.77;;;;;;;1.73;52.88;99820.88;4897590;29;20454;-94
2024/01/12 13:41:51;;;;;;;30.52;15.60;;;;;;;1.93;52.21;99827.06;4894638;29;20053;-95
2024/01/12 13:44:38;;;;;;;30.67;14.80;;;;;;;1.95;51.95;99819.72;4896848;29;20027;-96
2024/01/12 13:47:04;;;;;;;26.42;14.52;;;;;;;1.84;52.39;99830.09;4920095;29;20039;-95
2024/01/12 13:49:30;;;;;;;29.27;14.52;;;;;;;1.96;52.14;99865.66;4898056;29;20112;-95
2024/01/12 13:52:01;;;;;;;27.80;13.80;;;;;;;1.88;52.88;99864.00;4913592;29;20541;-94
2024/01/12 13:54:34;;;;;;;31.08;14.63;;;;;;;1.81;52.65;99855.22;4912594;29;20039;-94
2024/01/12 13:57:00;;;;;;;29.70;15.10;;;;;;;1.75;52.07;99843.53;4895554;29;20023;-96
2024/01/12 13:59:28;;;;;;;27.05;14.18;;;;;;;1.73;52.48;99847.44;4895182;29;20486;-94
2024/01/12 14:01:54;;;;;;;28.60;14.63;;;;;;;1.65;52.68;99844.94;4896224;29;20048;-96
2024/01/12 14:04:23;;;;;;;36.85;15.95;;;;;;;1.58;53.06;99837.78;4897857;29;20027;-94
2024/01/12 14:06:52;;;;;;;27.13;14.15;;;;;;;1.64;53.13;99860.06;4896024;29;20035;-95
2024/01/12 14:09:23;;;;;;;31.45;14.93;;;;;;;1.64;52.84;99846.78;4910575;29;20401;-94
2024/01/12 14:11:51;;;;;;;26.00;13.70;;;;;;;1.57;52.74;99846.72;4911515;29;20046;-94
2024/01/12 14:14:21;;;;;;;25.50;13.98;;;;;;;1.57;52.73;99862.66;4894741;29;20060;-94
2024/01/12 14:16:55;;;;;;;25.42;13.45;;;;;;;1.55;53.42;99850.59;4913915;29;20100;-95
2024/01/12 14:19:20;;;;;;;26.70;13.35;;;;;;;1.64;52.87;99849.44;4909911;29;20031;-93
2024/01/12 14:21:55;;;;;;;32.30;15.10;;;;;;;1.78;52.97;99877.66;4909006;29;20117;-93
2024/01/12 14:24:20;;;;;;;29.08;15.80;;;;;;;1.79;52.81;99881.97;4892194;29;20059;-93
2024/01/12 14:26:46;;;;;;;23.40;14.23;;;;;;;1.66;52.72;99867.81;4907864;29;20035;-93
2024/01/12 14:29:11;;;;;;;31.98;15.60;;;;;;;1.56;52.78;99860.22;4894350;29;20038;-92
2024/01/12 14:31:48;;;;;;;25.13;14.52;;;;;;;1.56;52.56;99876.97;4892987;29;20027;-92
2024/01/12 14:34:14;;;;;;;28.35;14.80;;;;;;;1.54;52.55;99865.72;4908445;29;20451;-92
2024/01/12 14:36:43;;;;;;;29.50;14.45;;;;;;;1.76;52.51;99892.16;4909883;29;20023;-94
2024/01/12 14:41:51;;;;;;;31.88;14.23;;;;;;;1.52;52.25;99854.47;5277608;23;20074;-93
2024/01/12 14:44:16;;;;;;;30.98;14.50;;;;;;;1.72;52.89;99878.47;4930732;29;20031;-94
2024/01/12 14:46:42;;;;;;;31.55;14.82;;;;;;;1.62;52.44;99864.75;4913538;29;20038;-96
2024/01/12 14:49:08;;;;;;;38.90;18.92;;;;;;;1.62;52.24;99864.75;4930563;29;20055;-96
2024/01/12 14:52:23;;;;;;;30.48;14.75;;;;;;;1.71;52.83;99895.41;4932947;29;20031;-96
2024/01/12 14:54:51;;;;;;;26.70;14.02;;;;;;;1.52;52.81;99874.91;4945003;29;20043;-95
2024/01/12 14:57:17;;;;;;;30.05;15.32;;;;;;;1.61;52.28;99871.88;4918137;29;20031;-96
2024/01/12 14:59:42;;;;;;;32.22;15.02;;;;;;;1.73;52.57;99882.75;4916913;29;20552;-96
2024/01/12 15:02:08;;;;;;;34.65;16.38;;;;;;;1.76;53.10;99900.91;4928738;29;20108;-95
2024/01/12 15:04:34;;;;;;;39.47;19.08;;;;;;;1.79;52.53;99905.84;4911830;29;20032;-95
2024/01/12 15:10:39;;;;;;;33.60;14.95;;;;;;;1.87;52.30;99909.34;5518737;23;20050;-96
2024/01/12 15:28:53;;;;;;;35.40;17.52;;;;;;;1.77;51.86;99921.16;5216301;23;20068;-95
2024/01/12 15:32:06;;;;;;;33.58;16.52;;;;;;;1.83;51.64;99935.50;4948769;29;20087;-96
2024/01/12 15:35:09;;;;;;;48.55;26.67;;;;;;;1.74;52.28;99926.03;4947755;29;20111;-93
2024/01/12 15:47:03;;;;;;;35.38;16.67;;;;;;;1.36;53.59;99921.94;4830653;29;20071;-96
2024/01/12 15:49:36;;;;;;;33.25;16.85;;;;;;;1.34;53.39;99925.81;4844848;29;20083;-93
2024/01/12 15:52:15;;;;;;;33.13;17.67;;;;;;;1.25;53.37;99919.03;4860857;29;20043;-95
2024/01/12 15:55:16;;;;;;;35.03;17.38;;;;;;;1.29;53.44;99923.75;4892856;29;20099;-96
2024/01/12 15:57:56;;;;;;;41.90;19.85;;;;;;;1.34;53.55;99934.59;4852356;29;20045;-96
2024/01/12 16:00:29;;;;;;;34.53;17.80;;;;;;;1.40;53.23;99935.66;4850998;29;20033;-95
2024/01/12 16:03:05;;;;;;;37.15;19.42;;;;;;;1.38;53.81;99929.72;4885569;29;20506;-96
2024/01/12 16:05:31;;;;;;;41.90;19.88;;;;;;;1.26;54.64;99929.44;4891977;29;20047;-95
2024/01/12 16:08:00;;;;;;;49.17;19.90;;;;;;;1.32;54.76;99935.81;4891121;29;20040;-94
2024/01/12 16:10:32;;;;;;;36.88;18.83;;;;;;;1.36;54.91;99931.75;4890348;29;20028;-95
2024/01/12 16:12:57;;;;;;;37.15;17.13;;;;;;;1.37;54.31;99943.97;4889634;29;20119;-95
2024/01/12 16:15:23;;;;;;;31.30;16.85;;;;;;;1.51;54.71;99956.31;4890826;29;20459;-94
2024/01/12 16:17:49;;;;;;;36.85;17.00;;;;;;;1.45;54.41;99954.44;4888582;29;20062;-96
2024/01/12 16:20:14;;;;;;;36.90;17.95;;;;;;;1.38;54.54;99937.69;4889078;29;20036;-95
2024/01/12 16:22:40;;;;;;;39.08;17.92;;;;;;;1.45;54.74;99949.13;4904256;29;20043;-96
2024/01/12 16:25:06;;;;;;;32.70;16.50;;;;;;;1.55;53.56;99944.31;4933012;29;20497;-96
2024/01/12 16:27:54;;;;;;;;;;;;;;;;;;;;;
2024/01/12 16:30:41;;;;;;;29.98;16.48;;;;;;;1.62;53.93;99944.38;4963896;29;20043;-96
2024/01/12 16:33:12;;;;;;;27.65;13.63;;;;;;;1.68;52.31;99942.75;4946711;29;20039;-96
2024/01/12 16:36:03;;;;;;;32.72;14.13;;;;;;;1.88;52.76;99978.19;4958748;29;20050;-96
2024/01/12 16:38:28;;;;;;;31.13;15.40;;;;;;;1.84;52.90;99965.50;4954792;29;20110;-95
2024/01/12 16:40:54;;;;;;;35.17;17.05;;;;;;;1.72;52.95;99955.44;4931524;29;20027;-96
2024/01/12 16:43:29;;;;;;;57.58;33.25;;;;;;;1.55;53.50;99943.50;4931608;29;20031;-96
2024/01/12 16:45:59;;;;;;;52.55;24.60;;;;;;;1.43;53.80;99953.81;4934931;29;20031;-95
2024/01/12 16:48:29;;;;;;;52.17;23.52;;;;;;;1.52;53.88;99957.97;4930739;29;20408;-96
2024/01/12 16:50:55;;;;;;;51.22;24.15;;;;;;;1.52;54.28;99959.81;4931029;29;20031;-94
2024/01/12 16:53:23;;;;;;;35.20;18.08;;;;;;;1.58;54.18;99972.31;4914191;29;20516;-96
2024/01/12 16:55:49;;;;;;;37.65;16.83;;;;;;;1.27;53.89;99948.84;4929313;29;20035;-95
2024/01/12 16:58:14;;;;;;;36.35;17.85;;;;;;;1.36;53.76;99982.16;4929110;29;20039;-94
2024/01/12 17:00:40;;;;;;;47.33;21.08;;;;;;;1.35;53.86;99968.06;4929039;29;20089;-93
2024/01/12 17:03:06;;;;;;;54.42;22.10;;;;;;;1.54;53.86;99979.84;4927278;29;20105;-93
2024/01/12 17:05:32;;;;;;;47.35;21.02;;;;;;;1.34;54.67;99958.47;4931155;29;20547;-93
2024/01/12 17:08:00;;;;;;;31.98;15.85;;;;;;;1.29;54.25;99950.28;4913746;29;20031;-95
2024/01/12 17:10:26;;;;;;;41.03;17.63;;;;;;;1.18;54.34;99966.72;4927476;29;20032;-95
2024/01/12 17:12:57;;;;;;;36.25;17.80;;;;;;;1.27;54.29;99981.50;4929334;29;20043;-96
2024/01/12 17:15:22;;;;;;;48.60;20.48;;;;;;;1.15;54.50;99978.53;4926869;29;20031;-96
2024/01/12 17:17:48;;;;;;;42.95;19.67;;;;;;;1.12;54.48;99964.81;4931874;29;20032;-96
2024/01/12 17:20:14;;;;;;;43.83;19.52;;;;;;;1.13;55.21;99979.75;4929320;29;20032;-95
2024/01/12 17:22:40;;;;;;;38.13;18.42;;;;;;;1.15;55.57;99978.53;4928430;29;20027;-94
2024/01/12 17:25:05;;;;;;;34.38;17.27;;;;;;;1.17;55.47;99981.81;4929673;29;20028;-96
2024/01/12 17:27:36;;;;;;;33.03;15.55;;;;;;;1.30;55.82;100007.63;4910176;29;20030;-95
2024/01/12 17:30:52;;;;;;;31.45;14.55;;;;;;;1.33;54.37;100009.91;4932930;29;20094;-95
2024/01/12 17:33:18;;;;;;;32.85;16.90;;;;;;;1.36;54.33;100011.34;4909336;29;20047;-95
2024/01/12 17:35:43;;;;;;;32.30;17.10;;;;;;;1.42;54.69;100005.25;4926886;29;20036;-95
2024/01/12 17:38:09;;;;;;;38.65;21.50;;;;;;;1.36;54.40;99992.75;4926687;29;20036;-95
2024/01/12 17:40:35;;;;;;;27.10;15.07;;;;;;;1.36;54.85;100001.53;4924814;29;20502;-95
2024/01/12 17:43:06;;;;;;;32.83;14.82;;;;;;;1.26;54.64;100006.34;4926280;29;20031;-96
2024/01/12 17:45:32;;;;;;;27.10;14.82;;;;;;;1.23;55.15;99985.53;4925113;29;20083;-95
2024/01/12 17:47:57;;;;;;;39.50;18.63;;;;;;;1.27;54.53;99992.09;4924776;29;20040;-95
2024/01/12 17:50:23;;;;;;;36.58;18.33;;;;;;;1.45;54.14;100001.41;4924399;29;20112;-95
2024/01/12 17:52:52;;;;;;;44.38;22.67;;;;;;;1.36;55.00;99988.28;4924158;29;20043;-94
2024/01/12 17:55:17;;;;;;;37.35;19.67;;;;;;;1.40;54.39;99994.84;4909188;29;20104;-94
2024/01/12 17:57:43;;;;;;;48.70;27.23;;;;;;;1.47;54.80;99994.06;4926805;29;20039;-96
2024/01/12 18:00:09;;;;;;;41.42;20.88;;;;;;;1.42;55.16;99998.13;4927839;29;20035;-96
2024/01/12 18:02:35;;;;;;;39.90;19.40;;;;;;;1.52;55.25;100013.72;4911634;29;20031;-96
2024/01/12 18:05:01;;;;;;;44.58;21.75;;;;;;;1.38;55.26;99982.78;4926878;29;20028;-95
2024/01/12 18:07:27;;;;;;;49.88;22.08;;;;;;;1.30;56.43;100007.63;4925675;29;20036;-94
2024/01/12 18:09:53;;;;;;;50.85;22.48;;;;;;;0.99;56.67;99973.50;4921974;29;20039;-95
2024/01/12 18:12:19;;;;;;;57.40;23.83;;;;;;;0.90;57.29;99980.75;4907856;29;20075;-93
2024/01/12 18:14:45;;;;;;;47.97;23.30;;;;;;;1.14;56.71;100014.03;4923061;29;20032;-95
2024/01/12 18:17:10;;;;;;;47.13;22.27;;;;;;;1.11;56.58;99990.53;4908597;29;20533;-95
2024/01/12 18:19:36;;;;;;;45.20;22.95;;;;;;;1.09;56.70;99984.59;4926552;29;20040;-94
2024/01/12 18:22:02;;;;;;;146.55;42.63;;;;;;;1.03;56.81;99981.91;4926950;29;20043;-93
2024/01/12 18:24:27;;;;;;;47.80;22.88;;;;;;;0.88;58.36;99996.03;4925753;29;20039;-94
2024/01/12 18:26:53;;;;;;;44.30;20.92;;;;;;;0.90;58.12;99983.41;4924401;29;20024;-94
2024/01/12 18:29:18;;;;;;;44.97;22.55;;;;;;;0.74;58.64;99989.78;4931736;29;20052;-95
2024/01/12 18:31:44;;;;;;;39.90;20.70;;;;;;;0.62;59.46;99999.25;4927726;29;20027;-95
2024/01/12 18:34:10;;;;;;;60.03;24.05;;;;;;;0.52;58.88;99999.56;4910091;29;20051;-94
2024/01/12 18:36:35;;;;;;;51.25;21.73;;;;;;;0.52;59.02;99985.47;4925481;29;20050;-95
2024/01/12 18:39:01;;;;;;;45.65;20.48;;;;;;;0.60;58.75;99982.72;4925213;29;20023;-95
2024/01/12 18:41:26;;;;;;;48.33;21.15;;;;;;;0.61;59.38;99989.66;4910933;29;20051;-95
2024/01/12 18:43:52;;;;;;;40.65;20.33;;;;;;;0.69;58.24;99983.44;4926778;29;20463;-96
2024/01/12 18:46:20;;;;;;;45.30;22.52;;;;;;;0.60;58.57;99972.09;4912282;29;20407;-95
2024/01/12 18:48:45;;;;;;;42.17;22.05;;;;;;;0.69;57.98;99978.94;4927100;29;20042;-96
2024/01/12 18:51:14;;;;;;;44.53;19.85;;;;;;;0.72;58.56;99980.38;4909530;29;20024;-96
2024/01/12 18:53:40;;;;;;;32.33;17.83;;;;;;;0.68;58.24;99973.81;4925723;29;20032;-95
2024/01/12 18:56:05;;;;;;;38.50;18.67;;;;;;;0.62;58.66;99977.22;4924061;29;20035;-96
2024/01/12 18:58:31;;;;;;;38.90;17.73;;;;;;;0.72;58.44;99988.34;4926344;29;20031;-95
2024/01/12 19:00:57;;;;;;;39.50;20.10;;;;;;;0.65;58.18;99968.91;4910923;29;20020;-94
2024/01/12 19:03:22;;;;;;;39.30;19.45;;;;;;;0.75;58.01;99990.63;4909397;29;20137;-95
2024/01/12 19:05:48;;;;;;;36.80;19.55;;;;;;;0.84;57.87;99986.81;4912178;29;20039;-96
2024/01/12 19:08:14;;;;;;;35.30;17.85;;;;;;;0.70;57.23;99962.00;4929424;29;20055;-96
2024/01/12 19:10:40;;;;;;;34.50;16.85;;;;;;;0.71;57.46;99958.38;4925698;29;20063;-96
2024/01/12 19:13:05;;;;;;;36.83;18.13;;;;;;;0.74;57.93;99955.31;4911253;29;20031;-95
2024/01/12 19:15:31;;;;;;;39.05;17.95;;;;;;;0.69;57.64;99959.56;4925409;29;20145;-95
2024/01/12 19:17:59;;;;;;;38.15;18.33;;;;;;;0.70;58.22;99969.97;4926466;29;20039;-96
2024/01/12 19:20:27;;;;;;;35.53;17.10;;;;;;;0.66;58.15;99973.19;4926713;29;20028;-95
2024/01/12 19:23:03;;;;;;;30.98;17.23;;;;;;;0.48;57.64;99955.91;4929693;29;20031;-96
2024/01/12 19:25:29;;;;;;;35.35;17.08;;;;;;;0.53;58.03;99968.59;4912520;29;20126;-95
2024/01/12 19:27:55;;;;;;;35.83;17.67;;;;;;;0.55;57.70;99963.91;4925608;29;20517;-96
2024/01/12 19:30:20;;;;;;;33.88;18.55;;;;;;;0.39;57.93;99954.38;4923556;29;20036;-96
2024/01/12 19:32:50;;;;;;;40.20;19.70;;;;;;;0.54;58.01;99963.09;4925522;29;20024;-95
2024/01/12 19:35:15;;;;;;;44.00;20.13;;;;;;;0.48;58.30;99941.81;4925086;29;20023;-95
2024/01/12 19:37:41;;;;;;;39.55;19.60;;;;;;;0.52;57.60;99943.09;4906743;29;20059;-95
2024/01/12 19:40:09;;;;;;;70.20;28.95;;;;;;;0.58;57.96;99952.94;4924907;29;20066;-94
2024/01/12 19:42:35;;;;;;;60.42;25.48;;;;;;;0.46;59.03;99949.97;4924413;29;20086;-96
2024/01/12 19:45:08;;;;;;;55.95;24.15;;;;;;;0.37;58.47;99941.34;4927005;29;20055;-96
2024/01/12 19:47:37;;;;;;;39.78;17.88;;;;;;;0.48;58.72;99973.59;4917471;29;20072;-96
2024/01/12 19:50:11;;;;;;;39.22;17.60;;;;;;;0.27;59.34;99955.88;4919602;29;20016;-96
2024/01/12 19:52:40;;;;;;;42.50;18.35;;;;;;;0.36;59.06;99971.47;4940375;29;20067;-96
2024/01/12 19:55:11;;;;;;;40.35;17.73;;;;;;;0.34;59.34;99943.53;4940762;29;20103;-96
2024/01/12 19:57:50;;;;;;;38.70;17.40;;;;;;;0.52;59.58;99975.72;4926000;29;20084;-96
2024/01/12 20:00:17;;;;;;;52.95;21.30;;;;;;;0.44;59.39;99961.78;4943175;29;20047;-96
2024/01/12 20:02:43;;;;;;;39.53;18.75;;;;;;;0.37;59.00;99966.97;4924604;29;20039;-96
2024/01/12 20:05:09;;;;;;;40.45;20.45;;;;;;;0.40;59.45;99979.88;4925522;29;20031;-96
2024/01/12 20:07:35;;;;;;;36.40;18.60;;;;;;;0.43;59.43;99974.19;4912570;29;20119;-96
2024/01/12 20:10:01;;;;;;;39.30;18.95;;;;;;;0.36;59.22;99952.09;4927620;29;20150;-96
2024/01/12 20:12:32;;;;;;;36.75;18.35;;;;;;;0.33;59.32;99963.91;4926130;29;20032;-96
2024/01/12 20:15:06;;;;;;;36.25;19.13;;;;;;;0.39;59.47;99976.41;4940334;29;20099;-96
2024/01/12 20:17:31;;;;;;;32.70;17.65;;;;;;;0.38;59.72;99980.03;4929177;29;20039;-96
2024/01/12 20:19:57;;;;;;;41.28;17.73;;;;;;;0.39;60.21;99984.34;4927399;29;20031;-96
2024/01/12 20:22:22;;;;;;;35.25;18.05;;;;;;;0.25;60.06;99961.38;4923618;29;20027;-95
2024/01/12 20:25:41;;;;;;;34.42;16.20;;;;;;;0.45;59.48;99997.84;4927832;29;20063;-95
2024/01/12 20:28:07;;;;;;;32.17;16.73;;;;;;;0.19;59.50;99970.06;4907060;29;20046;-96
2024/01/12 20:30:39;;;;;;;39.90;19.55;;;;;;;0.35;59.87;99990.19;4919848;29;20035;-96
2024/01/12 20:33:04;;;;;;;31.67;17.40;;;;;;;0.37;59.98;100006.72;4926538;29;20039;-96
2024/01/12 20:35:34;;;;;;;32.67;16.10;;;;;;;0.35;60.30;99992.84;4925213;29;20066;-95
2024/01/12 20:38:03;;;;;;;30.17;16.35;;;;;;;0.27;59.77;99982.34;4911167;29;20028;-96
2024/01/12 20:40:29;;;;;;;31.95;16.55;;;;;;;0.41;60.10;100000.03;4929385;29;20476;-96
2024/01/12 20:42:55;;;;;;;33.90;16.20;;;;;;;0.27;60.32;99982.34;4928380;29;20134;-96
2024/01/12 20:45:24;;;;;;;30.75;16.25;;;;;;;0.37;59.86;99999.59;4930330;29;20032;-96
2024/01/12 20:47:49;;;;;;;31.60;16.15;;;;;;;0.35;59.54;100014.03;4924944;29;20040;-96
2024/01/12 20:50:22;;;;;;;37.50;19.27;;;;;;;0.36;59.15;100003.25;4933572;29;20019;-94
2024/01/12 20:52:50;;;;;;;41.60;19.00;;;;;;;0.53;59.45;100017.09;4947907;29;20047;-94
2024/01/12 20:55:19;;;;;;;40.45;20.75;;;;;;;0.33;59.91;99992.19;4914884;29;20039;-95
2024/01/12 20:57:54;;;;;;;45.33;20.65;;;;;;;0.28;60.30;99995.41;4931570;29;20114;-95
2024/01/12 21:00:24;;;;;;;40.47;19.23;;;;;;;0.31;59.73;100004.81;4933668;29;20046;-96
2024/01/12 21:02:49;;;;;;;36.58;19.77;;;;;;;0.46;59.71;100025.97;4943262;29;20067;-96
2024/01/12 21:05:15;;;;;;;37.10;18.30;;;;;;;0.53;59.62;100024.22;4926972;29;20099;-95
2024/01/12 21:07:44;;;;;;;41.65;18.85;;;;;;;0.51;59.30;100013.81;4932411;29;20040;-96
2024/01/12 21:10:12;;;;;;;36.35;18.98;;;;;;;0.57;59.92;100044.03;4933413;29;20036;-96
2024/01/12 21:12:39;;;;;;;31.75;15.63;;;;;;;0.45;58.94;100017.19;4930934;29;20040;-96
2024/01/12 21:15:07;;;;;;;34.10;16.02;;;;;;;0.56;58.88;100018.53;4935526;29;20035;-96
2024/01/12 21:17:33;;;;;;;35.50;17.85;;;;;;;0.57;59.11;100034.25;4934544;29;20108;-96
2024/01/12 21:19:58;;;;;;;36.67;18.77;;;;;;;0.52;59.59;100026.06;4932804;29;20035;-96
2024/01/12 21:22:24;;;;;;;36.40;18.13;;;;;;;0.59;59.29;100039.38;4931305;29;20028;-96
2024/01/12 21:24:50;;;;;;;40.80;18.85;;;;;;;0.60;59.31;100030.41;4928731;29;20059;-95
2024/01/12 21:27:15;;;;;;;33.60;18.77;;;;;;;0.54;59.64;100032.00;4913167;29;20091;-95
2024/01/12 21:29:41;;;;;;;37.13;20.73;;;;;;;0.57;60.18;100036.91;4925153;29;20139;-96
2024/01/12 21:32:07;;;;;;;51.63;22.40;;;;;;;0.57;60.58;100041.38;4908435;29;20032;-95
2024/01/12 21:34:34;;;;;;;42.22;21.02;;;;;;;0.33;60.78;100014.22;4924762;29;20084;-96
2024/01/12 21:37:00;;;;;;;49.47;21.65;;;;;;;0.28;60.97;100007.84;4910529;29;20032;-96
2024/01/12 21:39:34;;;;;;;43.88;20.02;;;;;;;0.27;61.48;100003.53;4908163;29;20060;-95
2024/01/12 21:42:03;;;;;;;43.88;19.95;;;;;;;0.45;60.78;100024.34;4908631;29;20070;-96
2024/01/12 21:44:31;;;;;;;37.38;19.35;;;;;;;0.32;60.93;99995.88;4924365;29;20115;-96
2024/01/12 21:46:56;;;;;;;37.38;19.27;;;;;;;0.35;61.88;100035.22;4926269;29;20032;-96
2024/01/12 21:49:22;;;;;;;37.45;19.17;;;;;;;0.25;61.53;100009.03;4925267;29;20020;-96
2024/01/12 21:51:48;;;;;;;42.53;19.63;;;;;;;0.10;61.81;100001.09;4908764;29;20027;-95
2024/01/12 21:54:14;;;;;;;39.03;19.15;;;;;;;0.26;61.93;100008.00;4924600;29;20051;-96
2024/01/12 21:56:40;;;;;;;41.72;19.35;;;;;;;0.31;61.63;100023.34;4925874;29;20025;-96
2024/01/12 21:59:05;;;;;;;41.10;19.55;;;;;;;0.41;61.51;100023.88;4924128;29;20031;-96
2024/01/12 22:01:31;;;;;;;40.33;19.88;;;;;;;0.24;61.57;100003.91;4924359;29;20099;-96
2024/01/12 22:03:57;;;;;;;38.88;18.80;;;;;;;0.25;62.06;99997.59;4924292;29;20039;-95
2024/01/12 22:06:23;;;;;;;38.47;20.45;;;;;;;0.32;61.26;100011.75;4923446;29;20032;-96
2024/01/12 22:08:48;;;;;;;40.85;19.75;;;;;;;0.40;61.31;100016.94;4923818;29;20039;-96
2024/01/12 22:11:14;;;;;;;38.70;19.67;;;;;;;0.52;61.12;100030.50;4924479;29;20072;-96
2024/01/12 22:13:40;;;;;;;49.28;20.77;;;;;;;0.38;60.64;100011.84;4909644;29;20020;-96
2024/01/12 22:16:08;;;;;;;49.13;21.52;;;;;;;0.34;61.29;100015.03;4924658;29;20095;-96
2024/01/12 22:18:33;;;;;;;42.70;19.00;;;;;;;0.18;61.69;100008.94;4924885;29;20027;-96
2024/01/12 22:20:59;;;;;;;39.55;19.63;;;;;;;0.29;61.65;100023.56;4923251;29;20036;-96
2024/01/12 22:23:25;;;;;;;44.65;21.90;;;;;;;0.24;61.21;100017.97;4923563;29;20391;-96